sensor_id;sensor_type;location;lat;lon;timestamp;pressure;altitude;pressure_sealevel;temperature;humidity
10978;BME280;5542;48.272;10.794;2023-04-01T00:01:44;94479.28;;;7.14;81.82
10978;BME280;5542;48.272;10.794;2023-04-01T00:04:11;94477.44;;;7.15;81.62
10978;BME280;5542;48.272;10.794;2023-04-01T00:06:37;94476.66;;;7.14;82.02
10978;BME280;5542;48.272;10.794;2023-04-01T00:09:04;94470.00;;;7.24;81.05
10978;BME280;5542;48.272;10.794;2023-04-01T00:11:30;94479.69;;;7.23;81.30
10978;BME280;5542;48.272;10.794;2023-04-01T00:13:58;94464.13;;;7.16;80.91
10978;BME280;5542;48.272;10.794;2023-04-01T00:16:25;94474.78;;;7.27;80.92
10978;BME280;5542;48.272;10.794;2023-04-01T00:18:52;94466.09;;;7.26;80.95
10978;BME280;5542;48.272;10.794;2023-04-01T00:21:19;94476.34;;;7.28;81.04
10978;BME280;5542;48.272;10.794;2023-04-01T00:23:47;94470.31;;;7.27;80.97
10978;BME280;5542;48.272;10.794;2023-04-01T00:26:13;94470.47;;;7.21;80.85
10978;BME280;5542;48.272;10.794;2023-04-01T00:28:44;94472.22;;;7.15;81.38
10978;BME280;5542;48.272;10.794;2023-04-01T00:31:13;94473.72;;;7.28;80.91
10978;BME280;5542;48.272;10.794;2023-04-01T00:33:40;94472.78;;;7.17;80.68
10978;BME280;5542;48.272;10.794;2023-04-01T00:36:08;94475.63;;;7.15;80.89
10978;BME280;5542;48.272;10.794;2023-04-01T00:38:36;94478.47;;;7.14;81.30
10978;BME280;5542;48.272;10.794;2023-04-01T00:41:02;94490.50;;;7.15;80.96
10978;BME280;5542;48.272;10.794;2023-04-01T00:43:30;94484.81;;;7.18;80.62
10978;BME280;5542;48.272;10.794;2023-04-01T00:45:57;94473.88;;;7.21;80.64
10978;BME280;5542;48.272;10.794;2023-04-01T00:48:27;94475.69;;;7.21;80.55
10978;BME280;5542;48.272;10.794;2023-04-01T00:50:58;94473.31;;;7.19;80.62
10978;BME280;5542;48.272;10.794;2023-04-01T00:53:26;94476.88;;;7.30;80.57
10978;BME280;5542;48.272;10.794;2023-04-01T00:55:57;94476.66;;;7.31;79.76
10978;BME280;5542;48.272;10.794;2023-04-01T00:58:27;94466.34;;;7.25;80.06
10978;BME280;5542;48.272;10.794;2023-04-01T01:00:57;94470.41;;;7.32;79.66
10978;BME280;5542;48.272;10.794;2023-04-01T01:03:27;94480.72;;;7.22;80.25
10978;BME280;5542;48.272;10.794;2023-04-01T01:06:23;94470.06;;;7.29;79.59
10978;BME280;5542;48.272;10.794;2023-04-01T01:09:08;94469.28;;;7.28;80.20
10978;BME280;5542;48.272;10.794;2023-04-01T01:11:41;94470.06;;;7.29;79.77
10978;BME280;5542;48.272;10.794;2023-04-01T01:14:16;94465.81;;;7.23;80.37
10978;BME280;5542;48.272;10.794;2023-04-01T01:16:51;94456.59;;;7.20;80.31
10978;BME280;5542;48.272;10.794;2023-04-01T01:19:38;94449.09;;;7.24;80.23
10978;BME280;5542;48.272;10.794;2023-04-01T01:22:36;94459.00;;;7.22;80.49
10978;BME280;5542;48.272;10.794;2023-04-01T01:25:17;94453.53;;;7.23;80.33
10978;BME280;5542;48.272;10.794;2023-04-01T01:27:56;94464.78;;;7.24;80.28
10978;BME280;5542;48.272;10.794;2023-04-01T01:30:48;94463.41;;;7.21;80.68
10978;BME280;5542;48.272;10.794;2023-04-01T01:33:39;94466.28;;;7.19;80.00
10978;BME280;5542;48.272;10.794;2023-04-01T01:36:13;94464.28;;;7.10;80.92
10978;BME280;5542;48.272;10.794;2023-04-01T01:38:41;94452.72;;;7.06;80.95
10978;BME280;5542;48.272;10.794;2023-04-01T01:41:08;94457.81;;;7.12;81.17
10978;BME280;5542;48.272;10.794;2023-04-01T01:43:39;94451.47;;;7.08;80.95
10978;BME280;5542;48.272;10.794;2023-04-01T01:46:10;94457.41;;;7.04;80.71
10978;BME280;5542;48.272;10.794;2023-04-01T01:48:38;94462.84;;;7.02;80.95
10978;BME280;5542;48.272;10.794;2023-04-01T01:51:06;94454.91;;;6.97;80.88
10978;BME280;5542;48.272;10.794;2023-04-01T01:53:35;94458.66;;;7.01;81.42
10978;BME280;5542;48.272;10.794;2023-04-01T01:56:02;94454.00;;;7.03;80.84
10978;BME280;5542;48.272;10.794;2023-04-01T01:58:31;94450.97;;;6.95;81.00
10978;BME280;5542;48.272;10.794;2023-04-01T02:01:03;94453.44;;;7.01;80.96
10978;BME280;5542;48.272;10.794;2023-04-01T02:03:34;94447.41;;;7.01;80.66
10978;BME280;5542;48.272;10.794;2023-04-01T02:06:04;94453.66;;;7.00;80.62
10978;BME280;5542;48.272;10.794;2023-04-01T02:08:36;94453.66;;;7.00;80.63
10978;BME280;5542;48.272;10.794;2023-04-01T02:11:07;94460.41;;;6.96;81.04
10978;BME280;5542;48.272;10.794;2023-04-01T02:13:36;94457.31;;;6.99;80.77
10978;BME280;5542;48.272;10.794;2023-04-01T02:16:06;94458.09;;;6.99;80.16
10978;BME280;5542;48.272;10.794;2023-04-01T02:18:36;94463.78;;;6.96;80.33
10978;BME280;5542;48.272;10.794;2023-04-01T02:21:05;94464.38;;;6.98;80.27
10978;BME280;5542;48.272;10.794;2023-04-01T02:23:36;94464.44;;;7.03;80.15
10978;BME280;5542;48.272;10.794;2023-04-01T02:26:05;94463.97;;;6.89;80.30
10978;BME280;5542;48.272;10.794;2023-04-01T02:28:33;94467.28;;;6.85;80.88
10978;BME280;5542;48.272;10.794;2023-04-01T02:31:01;94470.44;;;6.87;80.69
10978;BME280;5542;48.272;10.794;2023-04-01T02:33:30;94473.22;;;6.80;80.47
10978;BME280;5542;48.272;10.794;2023-04-01T02:35:57;94460.97;;;6.69;81.07
10978;BME280;5542;48.272;10.794;2023-04-01T02:38:24;94468.03;;;6.68;81.38
10978;BME280;5542;48.272;10.794;2023-04-01T02:40:58;94474.28;;;6.67;81.18
10978;BME280;5542;48.272;10.794;2023-04-01T02:43:25;94464.63;;;6.68;80.64
10978;BME280;5542;48.272;10.794;2023-04-01T02:45:52;94480.13;;;6.58;81.18
10978;BME280;5542;48.272;10.794;2023-04-01T02:48:19;94481.47;;;6.60;81.28
10978;BME280;5542;48.272;10.794;2023-04-01T02:50:45;94485.09;;;6.59;81.57
10978;BME280;5542;48.272;10.794;2023-04-01T02:53:12;94481.59;;;6.54;81.16
10978;BME280;5542;48.272;10.794;2023-04-01T02:55:39;94477.97;;;6.55;80.54
10978;BME280;5542;48.272;10.794;2023-04-01T02:58:07;94498.31;;;6.53;80.66
10978;BME280;5542;48.272;10.794;2023-04-01T03:00:33;94497.78;;;6.39;81.24
10978;BME280;5542;48.272;10.794;2023-04-01T03:03:00;94494.91;;;6.52;80.79
10978;BME280;5542;48.272;10.794;2023-04-01T03:05:27;94487.75;;;6.48;80.69
10978;BME280;5542;48.272;10.794;2023-04-01T03:07:54;94495.03;;;6.46;80.63
10978;BME280;5542;48.272;10.794;2023-04-01T03:10:21;94492.22;;;6.35;80.85
10978;BME280;5542;48.272;10.794;2023-04-01T03:12:47;94493.50;;;6.33;81.40
10978;BME280;5542;48.272;10.794;2023-04-01T03:15:15;94493.50;;;6.33;81.06
10978;BME280;5542;48.272;10.794;2023-04-01T03:17:42;94496.44;;;6.36;81.20
10978;BME280;5542;48.272;10.794;2023-04-01T03:20:11;94501.75;;;6.41;81.16
10978;BME280;5542;48.272;10.794;2023-04-01T03:22:37;94503.69;;;6.34;81.13
10978;BME280;5542;48.272;10.794;2023-04-01T03:25:05;94505.28;;;6.35;81.40
10978;BME280;5542;48.272;10.794;2023-04-01T03:27:33;94490.72;;;6.39;81.09
10978;BME280;5542;48.272;10.794;2023-04-01T03:29:59;94508.81;;;6.41;81.32
10978;BME280;5542;48.272;10.794;2023-04-01T03:32:27;94501.97;;;6.40;81.20
10978;BME280;5542;48.272;10.794;2023-04-01T03:34:54;94520.69;;;6.49;81.05
10978;BME280;5542;48.272;10.794;2023-04-01T03:37:20;94504.03;;;6.38;81.48
10978;BME280;5542;48.272;10.794;2023-04-01T03:39:47;94506.66;;;6.38;81.96
10978;BME280;5542;48.272;10.794;2023-04-01T03:42:13;94519.09;;;6.48;81.70
10978;BME280;5542;48.272;10.794;2023-04-01T03:44:40;94508.66;;;6.48;81.84
10978;BME280;5542;48.272;10.794;2023-04-01T03:47:07;94506.22;;;6.58;81.67
10978;BME280;5542;48.272;10.794;2023-04-01T03:49:35;94511.81;;;6.50;81.92
10978;BME280;5542;48.272;10.794;2023-04-01T03:52:02;94523.28;;;6.49;82.58
10978;BME280;5542;48.272;10.794;2023-04-01T03:54:29;94513.53;;;6.56;82.31
10978;BME280;5542;48.272;10.794;2023-04-01T03:56:55;94506.16;;;6.53;83.36
10978;BME280;5542;48.272;10.794;2023-04-01T03:59:23;94506.59;;;6.50;84.16
10978;BME280;5542;48.272;10.794;2023-04-01T04:01:49;94513.09;;;6.47;85.00
10978;BME280;5542;48.272;10.794;2023-04-01T04:04:16;94512.31;;;6.47;85.53
10978;BME280;5542;48.272;10.794;2023-04-01T04:06:44;94522.75;;;6.47;85.74
10978;BME280;5542;48.272;10.794;2023-04-01T04:09:10;94514.41;;;6.61;85.40
10978;BME280;5542;48.272;10.794;2023-04-01T04:11:37;94514.78;;;6.53;85.75
10978;BME280;5542;48.272;10.794;2023-04-01T04:14:03;94519.53;;;6.56;85.88
10978;BME280;5542;48.272;10.794;2023-04-01T04:16:30;94514.66;;;6.60;85.77
10978;BME280;5542;48.272;10.794;2023-04-01T04:18:57;94522.75;;;6.47;86.51
10978;BME280;5542;48.272;10.794;2023-04-01T04:21:23;94513.28;;;6.57;86.57
10978;BME280;5542;48.272;10.794;2023-04-01T04:23:51;94513.84;;;6.59;nan
10978;BME280;5542;48.272;10.794;2023-04-01T04:26:18;94515.00;;;6.52;85.88
10978;BME280;5542;48.272;10.794;2023-04-01T04:28:44;94517.25;;;6.60;84.80
10978;BME280;5542;48.272;10.794;2023-04-01T04:31:11;94509.03;;;6.68;84.96
10978;BME280;5542;48.272;10.794;2023-04-01T04:33:38;94508.91;;;6.75;84.12
10978;BME280;5542;48.272;10.794;2023-04-01T04:36:05;94512.78;;;6.72;83.50
10978;BME280;5542;48.272;10.794;2023-04-01T04:38:32;94504.94;;;6.72;83.95
10978;BME280;5542;48.272;10.794;2023-04-01T04:41:00;94522.34;;;6.66;83.86
10978;BME280;5542;48.272;10.794;2023-04-01T04:43:26;94525.59;;;6.74;84.01
10978;BME280;5542;48.272;10.794;2023-04-01T04:45:53;94516.84;;;6.80;83.28
10978;BME280;5542;48.272;10.794;2023-04-01T04:48:20;94516.66;;;6.70;83.82
10978;BME280;5542;48.272;10.794;2023-04-01T04:50:47;94509.88;;;6.85;83.26
10978;BME280;5542;48.272;10.794;2023-04-01T04:53:15;94520.16;;;6.75;82.75
10978;BME280;5542;48.272;10.794;2023-04-01T04:55:43;94515.63;;;6.71;82.68
10978;BME280;5542;48.272;10.794;2023-04-01T04:58:12;94505.03;;;6.77;82.83
10978;BME280;5542;48.272;10.794;2023-04-01T05:00:39;94509.78;;;6.80;82.29
10978;BME280;5542;48.272;10.794;2023-04-01T05:03:06;94507.88;;;6.76;82.16
10978;BME280;5542;48.272;10.794;2023-04-01T05:05:33;94505.78;;;6.61;83.02
10978;BME280;5542;48.272;10.794;2023-04-01T05:07:59;94501.28;;;6.73;82.63
10978;BME280;5542;48.272;10.794;2023-04-01T05:10:26;94503.81;;;6.68;83.05
10978;BME280;5542;48.272;10.794;2023-04-01T05:12:52;94494.44;;;6.84;81.49
10978;BME280;5542;48.272;10.794;2023-04-01T05:15:21;94511.84;;;6.78;81.53
10978;BME280;5542;48.272;10.794;2023-04-01T05:17:47;94506.69;;;6.83;81.64
10978;BME280;5542;48.272;10.794;2023-04-01T05:20:14;94511.38;;;6.81;80.98
10978;BME280;5542;48.272;10.794;2023-04-01T05:22:41;94506.59;;;6.78;81.37
10978;BME280;5542;48.272;10.794;2023-04-01T05:25:08;94482.72;;;6.86;81.06
10978;BME280;5542;48.272;10.794;2023-04-01T05:27:35;94495.50;;;6.71;81.31
10978;BME280;5542;48.272;10.794;2023-04-01T05:30:02;94502.78;;;6.69;81.39
10978;BME280;5542;48.272;10.794;2023-04-01T05:32:30;94498.38;;;6.70;81.48
10978;BME280;5542;48.272;10.794;2023-04-01T05:34:57;94492.91;;;6.71;81.36
10978;BME280;5542;48.272;10.794;2023-04-01T05:37:23;94508.66;;;6.76;80.65
10978;BME280;5542;48.272;10.794;2023-04-01T05:39:50;94498.56;;;6.80;80.48
10978;BME280;5542;48.272;10.794;2023-04-01T05:42:16;94501.06;;;6.75;80.83
10978;BME280;5542;48.272;10.794;2023-04-01T05:44:43;94500.69;;;6.83;80.43
10978;BME280;5542;48.272;10.794;2023-04-01T05:47:09;94498.16;;;6.88;80.19
10978;BME280;5542;48.272;10.794;2023-04-01T05:49:37;94497.38;;;6.87;79.90
10978;BME280;5542;48.272;10.794;2023-04-01T05:52:04;94508.81;;;6.98;79.71
10978;BME280;5542;48.272;10.794;2023-04-01T05:54:30;94503.63;;;6.86;79.86
10978;BME280;5542;48.272;10.794;2023-04-01T05:56:57;94506.75;;;7.00;79.47
10978;BME280;5542;48.272;10.794;2023-04-01T05:59:24;94511.81;;;7.07;79.55
10978;BME280;5542;48.272;10.794;2023-04-01T06:01:50;94507.47;;;7.12;78.68
10978;BME280;5542;48.272;10.794;2023-04-01T06:04:18;94510.19;;;7.17;79.08
10978;BME280;5542;48.272;10.794;2023-04-01T06:06:46;94510.25;;;7.23;78.60
10978;BME280;5542;48.272;10.794;2023-04-01T06:09:15;94500.69;;;7.28;77.69
10978;BME280;5542;48.272;10.794;2023-04-01T06:11:51;94512.78;;;7.34;78.44
10978;BME280;5542;48.272;10.794;2023-04-01T06:14:29;94503.19;;;7.40;77.15
10978;BME280;5542;48.272;10.794;2023-04-01T06:17:06;94505.19;;;7.50;77.22
10978;BME280;5542;48.272;10.794;2023-04-01T06:19:40;94495.97;;;7.64;77.00
10978;BME280;5542;48.272;10.794;2023-04-01T06:22:26;94508.53;;;7.62;76.62
10978;BME280;5542;48.272;10.794;2023-04-01T06:25:14;94509.91;;;7.86;74.02
10978;BME280;5542;48.272;10.794;2023-04-01T06:27:57;94514.56;;;8.01;74.38
10978;BME280;5542;48.272;10.794;2023-04-01T06:30:34;94505.25;;;8.10;72.84
10978;BME280;5542;48.272;10.794;2023-04-01T06:33:21;94514.19;;;7.92;72.99
10978;BME280;5542;48.272;10.794;2023-04-01T06:36:12;94519.00;;;8.01;73.52
10978;BME280;5542;48.272;10.794;2023-04-01T06:39:02;94521.19;;;7.87;74.06
10978;BME280;5542;48.272;10.794;2023-04-01T06:41:54;94523.97;;;7.80;73.61
10978;BME280;5542;48.272;10.794;2023-04-01T06:44:33;94507.34;;;7.69;73.48
10978;BME280;5542;48.272;10.794;2023-04-01T06:47:12;94523.72;;;7.82;74.09
10978;BME280;5542;48.272;10.794;2023-04-01T06:50:05;94512.97;;;8.17;72.70
10978;BME280;5542;48.272;10.794;2023-04-01T06:56:41;94502.16;;;9.33;67.74
10978;BME280;5542;48.272;10.794;2023-04-01T06:59:13;94493.38;;;9.49;66.37
10978;BME280;5542;48.272;10.794;2023-04-01T07:01:45;94511.63;;;9.71;65.96
10978;BME280;5542;48.272;10.794;2023-04-01T07:04:15;94511.91;;;9.70;65.32
10978;BME280;5542;48.272;10.794;2023-04-01T07:06:47;94504.34;;;9.79;65.06
10978;BME280;5542;48.272;10.794;2023-04-01T07:09:19;94505.38;;;9.78;64.78
10978;BME280;5542;48.272;10.794;2023-04-01T07:11:50;94512.84;;;9.59;65.42
10978;BME280;5542;48.272;10.794;2023-04-01T07:14:22;94511.69;;;9.44;65.48
10978;BME280;5542;48.272;10.794;2023-04-01T07:16:53;94507.41;;;9.33;66.68
10978;BME280;5542;48.272;10.794;2023-04-01T07:19:27;94520.44;;;9.23;67.86
10978;BME280;5542;48.272;10.794;2023-04-01T07:21:58;94518.50;;;9.13;67.80
10978;BME280;5542;48.272;10.794;2023-04-01T07:24:30;94515.19;;;8.96;67.88
10978;BME280;5542;48.272;10.794;2023-04-01T07:27:00;94523.94;;;9.07;66.71
10978;BME280;5542;48.272;10.794;2023-04-01T07:29:27;94514.75;;;9.04;66.66
10978;BME280;5542;48.272;10.794;2023-04-01T07:32:11;94506.53;;;8.95;67.17
10978;BME280;5542;48.272;10.794;2023-04-01T07:34:50;94503.09;;;9.17;67.84
10978;BME280;5542;48.272;10.794;2023-04-01T07:37:22;94513.00;;;9.15;66.19
10978;BME280;5542;48.272;10.794;2023-04-01T07:40:00;94514.50;;;9.06;66.44
10978;BME280;5542;48.272;10.794;2023-04-01T07:42:38;94511.34;;;9.31;65.91
10978;BME280;5542;48.272;10.794;2023-04-01T07:45:17;94509.28;;;9.38;65.62
10978;BME280;5542;48.272;10.794;2023-04-01T07:47:57;94509.44;;;9.58;64.84
10978;BME280;5542;48.272;10.794;2023-04-01T07:50:29;94527.09;;;9.68;64.16
10978;BME280;5542;48.272;10.794;2023-04-01T07:53:08;94524.91;;;9.55;64.43
10978;BME280;5542;48.272;10.794;2023-04-01T07:55:42;94516.75;;;9.51;64.47
10978;BME280;5542;48.272;10.794;2023-04-01T07:58:19;94526.50;;;9.56;64.78
10978;BME280;5542;48.272;10.794;2023-04-01T08:00:53;94528.66;;;9.32;65.01
10978;BME280;5542;48.272;10.794;2023-04-01T08:03:33;94521.31;;;9.34;65.87
10978;BME280;5542;48.272;10.794;2023-04-01T08:06:07;94518.81;;;9.17;65.62
10978;BME280;5542;48.272;10.794;2023-04-01T08:08:47;94519.22;;;9.04;64.66
10978;BME280;5542;48.272;10.794;2023-04-01T08:11:28;94521.28;;;9.02;66.04
10978;BME280;5542;48.272;10.794;2023-04-01T08:14:08;94515.25;;;9.28;65.50
10978;BME280;5542;48.272;10.794;2023-04-01T08:16:46;94520.41;;;9.18;64.92
10978;BME280;5542;48.272;10.794;2023-04-01T08:19:28;94526.34;;;9.08;65.58
10978;BME280;5542;48.272;10.794;2023-04-01T08:21:58;94516.44;;;9.15;65.63
10978;BME280;5542;48.272;10.794;2023-04-01T08:24:34;94513.41;;;9.29;64.76
10978;BME280;5542;48.272;10.794;2023-04-01T08:27:06;94500.03;;;9.30;65.02
10978;BME280;5542;48.272;10.794;2023-04-01T08:29:41;94512.31;;;9.24;65.13
10978;BME280;5542;48.272;10.794;2023-04-01T08:32:11;94508.31;;;9.49;65.42
10978;BME280;5542;48.272;10.794;2023-04-01T08:34:40;94512.03;;;9.53;64.06
10978;BME280;5542;48.272;10.794;2023-04-01T08:37:12;94504.78;;;9.65;65.06
10978;BME280;5542;48.272;10.794;2023-04-01T08:39:46;94507.97;;;9.72;64.43
10978;BME280;5542;48.272;10.794;2023-04-01T08:42:27;94511.28;;;9.95;63.68
10978;BME280;5542;48.272;10.794;2023-04-01T08:45:18;94505.94;;;9.80;61.84
10978;BME280;5542;48.272;10.794;2023-04-01T08:53:44;94487.34;;;9.91;63.55
10978;BME280;5542;48.272;10.794;2023-04-01T08:56:15;94502.16;;;10.08;62.59
10978;BME280;5542;48.272;10.794;2023-04-01T08:59:08;94489.53;;;10.05;61.78
10978;BME280;5542;48.272;10.794;2023-04-01T09:02:04;94495.88;;;10.14;62.19
10978;BME280;5542;48.272;10.794;2023-04-01T09:04:57;94493.72;;;10.06;61.77
10978;BME280;5542;48.272;10.794;2023-04-01T09:07:35;94482.88;;;9.92;61.49
10978;BME280;5542;48.272;10.794;2023-04-01T09:10:28;94480.94;;;9.77;62.29
10978;BME280;5542;48.272;10.794;2023-04-01T09:13:14;94473.44;;;9.91;63.94
10978;BME280;5542;48.272;10.794;2023-04-01T09:18:59;94486.34;;;9.97;62.87
10978;BME280;5542;48.272;10.794;2023-04-01T09:21:41;94472.44;;;9.97;61.76
10978;BME280;5542;48.272;10.794;2023-04-01T09:27:26;94474.81;;;10.04;62.03
10978;BME280;5542;48.272;10.794;2023-04-01T09:30:22;94484.00;;;10.06;62.51
10978;BME280;5542;48.272;10.794;2023-04-01T09:36:07;94482.31;;;10.27;63.05
10978;BME280;5542;48.272;10.794;2023-04-01T09:38:52;94474.31;;;10.07;62.31
10978;BME280;5542;48.272;10.794;2023-04-01T09:41:28;94475.84;;;9.97;62.87
10978;BME280;5542;48.272;10.794;2023-04-01T09:44:01;94485.88;;;10.11;64.17
10978;BME280;5542;48.272;10.794;2023-04-01T09:46:51;94478.38;;;10.30;63.31
10978;BME280;5542;48.272;10.794;2023-04-01T09:49:49;94483.03;;;10.17;63.72
10978;BME280;5542;48.272;10.794;2023-04-01T09:52:31;94484.28;;;10.05;64.24
10978;BME280;5542;48.272;10.794;2023-04-01T09:55:15;94482.97;;;10.02;64.48
10978;BME280;5542;48.272;10.794;2023-04-01T09:58:11;94481.66;;;10.05;64.10
10978;BME280;5542;48.272;10.794;2023-04-01T10:01:01;94490.03;;;10.01;64.49
10978;BME280;5542;48.272;10.794;2023-04-01T10:04:02;94490.75;;;9.92;63.33
10978;BME280;5542;48.272;10.794;2023-04-01T10:10:03;94491.88;;;10.01;64.24
10978;BME280;5542;48.272;10.794;2023-04-01T10:16:02;94504.78;;;9.33;67.96
10978;BME280;5542;48.272;10.794;2023-04-01T10:25:01;94505.69;;;9.49;70.29
10978;BME280;5542;48.272;10.794;2023-04-01T10:27:56;94504.81;;;9.38;72.65
10978;BME280;5542;48.272;10.794;2023-04-01T10:30:53;94507.31;;;9.23;73.35
10978;BME280;5542;48.272;10.794;2023-04-01T10:36:53;94520.56;;;9.38;74.88
10978;BME280;5542;48.272;10.794;2023-04-01T10:39:54;94521.63;;;9.37;75.53
10978;BME280;5542;48.272;10.794;2023-04-01T10:42:51;94520.03;;;9.09;75.48
10978;BME280;5542;48.272;10.794;2023-04-01T10:48:55;94524.25;;;8.83;78.72
10978;BME280;5542;48.272;10.794;2023-04-01T10:51:43;94519.47;;;9.02;77.43
10978;BME280;5542;48.272;10.794;2023-04-01T10:54:45;94518.81;;;8.90;78.52
10978;BME280;5542;48.272;10.794;2023-04-01T10:57:48;94512.94;;;8.56;78.62
10978;BME280;5542;48.272;10.794;2023-04-01T11:00:57;94514.19;;;8.31;79.71
10978;BME280;5542;48.272;10.794;2023-04-01T11:03:55;94514.59;;;8.23;80.61
10978;BME280;5542;48.272;10.794;2023-04-01T11:13:06;94509.38;;;8.23;83.20
10978;BME280;5542;48.272;10.794;2023-04-01T11:19:06;94514.94;;;8.10;83.57
10978;BME280;5542;48.272;10.794;2023-04-01T11:21:49;94516.25;;;8.07;83.31
10978;BME280;5542;48.272;10.794;2023-04-01T11:24:35;94513.97;;;7.94;83.52
10978;BME280;5542;48.272;10.794;2023-04-01T11:27:16;94510.13;;;8.02;83.98
10978;BME280;5542;48.272;10.794;2023-04-01T11:32:52;94521.75;;;8.11;83.20
10978;BME280;5542;48.272;10.794;2023-04-01T11:35:28;94505.91;;;8.01;82.59
10978;BME280;5542;48.272;10.794;2023-04-01T11:38:05;94505.13;;;8.00;82.93
10978;BME280;5542;48.272;10.794;2023-04-01T11:40:42;94515.44;;;8.07;83.09
10978;BME280;5542;48.272;10.794;2023-04-01T11:43:16;94513.38;;;7.92;83.27
10978;BME280;5542;48.272;10.794;2023-04-01T11:45:49;94511.44;;;7.82;83.35
10978;BME280;5542;48.272;10.794;2023-04-01T11:48:33;94513.00;;;8.00;82.59
10978;BME280;5542;48.272;10.794;2023-04-01T11:51:25;94513.97;;;8.16;82.06
10978;BME280;5542;48.272;10.794;2023-04-01T11:53:59;94508.06;;;8.26;81.50
10978;BME280;5542;48.272;10.794;2023-04-01T11:56:56;94514.59;;;8.23;81.75
10978;BME280;5542;48.272;10.794;2023-04-01T11:59:41;94513.81;;;8.23;80.55
10978;BME280;5542;48.272;10.794;2023-04-01T12:02:20;94512.34;;;8.32;81.47
10978;BME280;5542;48.272;10.794;2023-04-01T12:08:21;94510.69;;;8.42;81.49
10978;BME280;5542;48.272;10.794;2023-04-01T12:10:55;94525.09;;;8.45;79.89
10978;BME280;5542;48.272;10.794;2023-04-01T12:13:36;94514.88;;;8.43;80.91
10978;BME280;5542;48.272;10.794;2023-04-01T12:16:14;94524.56;;;8.43;80.42
10978;BME280;5542;48.272;10.794;2023-04-01T12:18:50;94528.81;;;8.27;81.40
10978;BME280;5542;48.272;10.794;2023-04-01T12:21:25;94526.84;;;8.17;81.96
10978;BME280;5542;48.272;10.794;2023-04-01T12:27:02;94542.63;;;8.23;85.02
10978;BME280;5542;48.272;10.794;2023-04-01T12:29:49;94536.28;;;8.18;84.94
10978;BME280;5542;48.272;10.794;2023-04-01T12:32:25;94547.00;;;8.17;86.36
10978;BME280;5542;48.272;10.794;2023-04-01T12:35:13;94546.06;;;8.06;86.79
10978;BME280;5542;48.272;10.794;2023-04-01T12:37:50;94537.19;;;8.07;85.70
10978;BME280;5542;48.272;10.794;2023-04-01T12:40:33;94542.72;;;8.11;86.90
10978;BME280;5542;48.272;10.794;2023-04-01T12:43:20;94540.34;;;8.09;87.07
10978;BME280;5542;48.272;10.794;2023-04-01T12:45:59;94535.44;;;8.13;86.88
10978;BME280;5542;48.272;10.794;2023-04-01T12:48:47;94549.69;;;8.22;88.33
10978;BME280;5542;48.272;10.794;2023-04-01T12:51:39;94546.94;;;8.34;89.10
10978;BME280;5542;48.272;10.794;2023-04-01T12:54:34;94539.50;;;8.42;88.07
10978;BME280;5542;48.272;10.794;2023-04-01T12:57:24;94541.06;;;8.43;87.30
10978;BME280;5542;48.272;10.794;2023-04-01T13:02:34;94528.81;;;8.27;88.38
10978;BME280;5542;48.272;10.794;2023-04-01T13:08:28;94538.41;;;8.38;88.58
10978;BME280;5542;48.272;10.794;2023-04-01T13:11:18;94534.91;;;8.33;88.59
10978;BME280;5542;48.272;10.794;2023-04-01T13:14:21;94542.28;;;8.36;88.70
10978;BME280;5542;48.272;10.794;2023-04-01T13:16:58;94531.91;;;8.41;88.32
10978;BME280;5542;48.272;10.794;2023-04-01T13:19:35;94531.03;;;8.57;87.51
10978;BME280;5542;48.272;10.794;2023-04-01T13:22:07;94529.69;;;8.55;87.39
10978;BME280;5542;48.272;10.794;2023-04-01T13:24:43;94543.59;;;8.55;87.30
10978;BME280;5542;48.272;10.794;2023-04-01T13:27:17;94545.06;;;8.46;88.06
10978;BME280;5542;48.272;10.794;2023-04-01T13:29:53;94537.78;;;8.53;85.68
10978;BME280;5542;48.272;10.794;2023-04-01T13:32:29;94542.81;;;8.55;85.13
10978;BME280;5542;48.272;10.794;2023-04-01T13:35:20;94548.06;;;8.55;85.73
10978;BME280;5542;48.272;10.794;2023-04-01T13:37:58;94534.56;;;8.68;85.10
10978;BME280;5542;48.272;10.794;2023-04-01T13:40:50;94543.88;;;8.59;85.13
10978;BME280;5542;48.272;10.794;2023-04-01T13:43:24;94549.84;;;8.54;85.01
10978;BME280;5542;48.272;10.794;2023-04-01T13:46:09;94538.84;;;8.74;86.03
10978;BME280;5542;48.272;10.794;2023-04-01T13:48:53;94544.19;;;8.84;84.79
10978;BME280;5542;48.272;10.794;2023-04-01T13:51:40;94550.69;;;8.82;82.85
10978;BME280;5542;48.272;10.794;2023-04-01T13:54:36;94546.19;;;8.77;83.48
10978;BME280;5542;48.272;10.794;2023-04-01T13:57:19;94552.41;;;8.71;83.57
10978;BME280;5542;48.272;10.794;2023-04-01T14:00:01;94554.88;;;8.56;84.74
10978;BME280;5542;48.272;10.794;2023-04-01T14:02:47;94553.72;;;8.46;86.33
10978;BME280;5542;48.272;10.794;2023-04-01T14:05:28;94555.81;;;8.50;85.68
10978;BME280;5542;48.272;10.794;2023-04-01T14:08:06;94555.59;;;8.51;85.69
10978;BME280;5542;48.272;10.794;2023-04-01T14:10:39;94566.44;;;8.60;87.70
10978;BME280;5542;48.272;10.794;2023-04-01T14:13:14;94550.84;;;8.48;86.91
10978;BME280;5542;48.272;10.794;2023-04-01T14:15:59;94555.34;;;8.53;87.54
10978;BME280;5542;48.272;10.794;2023-04-01T14:18:39;94553.88;;;8.62;87.86
10978;BME280;5542;48.272;10.794;2023-04-01T14:21:17;94558.09;;;8.63;86.34
10978;BME280;5542;48.272;10.794;2023-04-01T14:24:19;94563.63;;;8.44;86.23
10978;BME280;5542;48.272;10.794;2023-04-01T14:27:18;94568.44;;;8.53;86.94
10978;BME280;5542;48.272;10.794;2023-04-01T14:30:00;94557.84;;;8.42;85.78
10978;BME280;5542;48.272;10.794;2023-04-01T14:32:40;94565.38;;;8.39;85.52
10978;BME280;5542;48.272;10.794;2023-04-01T14:35:26;94559.94;;;8.40;86.37
10978;BME280;5542;48.272;10.794;2023-04-01T14:38:06;94557.84;;;8.42;85.65
10978;BME280;5542;48.272;10.794;2023-04-01T14:40:52;94562.22;;;8.37;86.82
10978;BME280;5542;48.272;10.794;2023-04-01T14:43:28;94566.34;;;8.33;86.85
10978;BME280;5542;48.272;10.794;2023-04-01T14:46:13;94561.56;;;8.30;87.71
10978;BME280;5542;48.272;10.794;2023-04-01T14:48:50;94559.16;;;8.45;87.33
10978;BME280;5542;48.272;10.794;2023-04-01T14:51:22;94569.00;;;8.55;87.10
10978;BME280;5542;48.272;10.794;2023-04-01T14:54:00;94565.47;;;8.66;87.57
10978;BME280;5542;48.272;10.794;2023-04-01T14:56:35;94562.53;;;8.84;86.80
10978;BME280;5542;48.272;10.794;2023-04-01T14:59:08;94566.06;;;8.73;85.24